Terminal Aerodrome Forecast
Issued by NWS

Home | Current Version | Previous Version | Text Only | Print | Product List | Glossary Off
Versions: 1 2 3 4 5 6 7 8 9 10 11 12 13 14 15 16 17 18 19

406
FTUS43 KBIS 170530
TAFMOT
TAF
KMOT 170530Z 1706/1806 28009KT P6SM BKN028 BKN035
     FM171200 26006KT P6SM SCT035
     FM171600 23008KT P6SM FEW200
     FM172200 20008KT P6SM SCT200
     FM180100 17006KT P6SM SCT250=

USA.gov is the U.S. government's official web portal to all federal, state and local government web resources and services.